sensor_id;sensor_type;location;lat;lon;timestamp;pressure;altitude;pressure_sealevel;temperature;humidity
8061;BME280;4073;42.626;25.386;2023-07-29T00:00:35;97011.63;;;18.52;92.09
8061;BME280;4073;42.626;25.386;2023-07-29T00:03:01;96997.94;;;18.48;92.27
8061;BME280;4073;42.626;25.386;2023-07-29T00:05:26;96998.75;;;18.49;92.98
8061;BME280;4073;42.626;25.386;2023-07-29T00:07:52;96999.44;;;18.37;94.13
8061;BME280;4073;42.626;25.386;2023-07-29T00:10:17;97004.97;;;18.32;95.19
8061;BME280;4073;42.626;25.386;2023-07-29T00:12:43;96996.72;;;18.29;95.59
8061;BME280;4073;42.626;25.386;2023-07-29T00:15:08;96996.25;;;18.27;96.92
8061;BME280;4073;42.626;25.386;2023-07-29T00:17:34;96998.31;;;18.30;96.78
8061;BME280;4073;42.626;25.386;2023-07-29T00:19:59;96994.47;;;18.31;96.22
8061;BME280;4073;42.626;25.386;2023-07-29T00:22:25;96991.13;;;18.34;95.85
8061;BME280;4073;42.626;25.386;2023-07-29T00:24:54;96991.03;;;18.22;96.16
8061;BME280;4073;42.626;25.386;2023-07-29T00:27:23;96991.97;;;18.26;95.76
8061;BME280;4073;42.626;25.386;2023-07-29T00:29:49;96991.47;;;18.24;96.38
8061;BME280;4073;42.626;25.386;2023-07-29T00:32:14;96980.03;;;18.18;96.57
8061;BME280;4073;42.626;25.386;2023-07-29T00:34:40;96984.19;;;18.16;96.92
8061;BME280;4073;42.626;25.386;2023-07-29T00:37:05;96988.50;;;18.08;97.38
8061;BME280;4073;42.626;25.386;2023-07-29T00:39:32;96981.84;;;18.06;97.06
8061;BME280;4073;42.626;25.386;2023-07-29T00:41:57;96979.50;;;17.95;97.16
8061;BME280;4073;42.626;25.386;2023-07-29T00:44:23;96983.97;;;17.91;97.83
8061;BME280;4073;42.626;25.386;2023-07-29T00:46:50;96970.28;;;17.88;97.37
8061;BME280;4073;42.626;25.386;2023-07-29T00:49:17;96976.63;;;17.92;97.46
8061;BME280;4073;42.626;25.386;2023-07-29T00:51:43;96970.13;;;17.93;96.91
8061;BME280;4073;42.626;25.386;2023-07-29T00:54:08;96982.03;;;17.92;95.78
8061;BME280;4073;42.626;25.386;2023-07-29T00:56:34;96980.94;;;17.93;95.55
8061;BME280;4073;42.626;25.386;2023-07-29T00:59:01;96970.44;;;17.91;95.36
8061;BME280;4073;42.626;25.386;2023-07-29T01:01:28;96971.69;;;17.94;94.60
8061;BME280;4073;42.626;25.386;2023-07-29T01:03:54;96969.31;;;17.92;95.38
8061;BME280;4073;42.626;25.386;2023-07-29T01:12:08;96964.13;;;17.79;95.65
8061;BME280;4073;42.626;25.386;2023-07-29T01:14:46;96978.13;;;17.72;96.95
8061;BME280;4073;42.626;25.386;2023-07-29T01:17:23;96967.47;;;17.67;97.69
8061;BME280;4073;42.626;25.386;2023-07-29T01:20:09;96969.41;;;17.58;99.38
8061;BME280;4073;42.626;25.386;2023-07-29T01:22:37;96968.47;;;17.46;100.00
8061;BME280;4073;42.626;25.386;2023-07-29T01:25:06;96962.91;;;17.42;100.00
8061;BME280;4073;42.626;25.386;2023-07-29T01:27:31;96971.31;;;17.49;100.00
8061;BME280;4073;42.626;25.386;2023-07-29T01:29:57;96954.16;;;17.45;100.00
8061;BME280;4073;42.626;25.386;2023-07-29T01:32:53;96964.31;;;17.48;100.00
8061;BME280;4073;42.626;25.386;2023-07-29T01:35:33;96963.19;;;17.49;100.00
8061;BME280;4073;42.626;25.386;2023-07-29T01:38:17;96970.38;;;17.45;100.00
8061;BME280;4073;42.626;25.386;2023-07-29T01:40:44;96964.47;;;17.35;100.00
8061;BME280;4073;42.626;25.386;2023-07-29T01:43:11;96967.19;;;17.26;100.00
8061;BME280;4073;42.626;25.386;2023-07-29T01:45:37;96981.78;;;17.25;100.00
8061;BME280;4073;42.626;25.386;2023-07-29T01:48:07;96987.19;;;17.17;100.00
8061;BME280;4073;42.626;25.386;2023-07-29T01:50:36;96978.78;;;17.18;100.00
8061;BME280;4073;42.626;25.386;2023-07-29T01:53:01;96981.78;;;17.17;100.00
8061;BME280;4073;42.626;25.386;2023-07-29T01:55:27;96979.72;;;17.14;100.00
8061;BME280;4073;42.626;25.386;2023-07-29T01:57:52;96989.44;;;17.15;100.00
8061;BME280;4073;42.626;25.386;2023-07-29T02:00:19;96993.72;;;17.16;100.00
8061;BME280;4073;42.626;25.386;2023-07-29T02:02:45;96993.72;;;17.16;100.00
8061;BME280;4073;42.626;25.386;2023-07-29T02:05:10;96993.88;;;17.11;100.00
8061;BME280;4073;42.626;25.386;2023-07-29T02:07:36;96995.47;;;17.12;100.00
8061;BME280;4073;42.626;25.386;2023-07-29T02:10:01;96985.78;;;16.94;100.00
8061;BME280;4073;42.626;25.386;2023-07-29T02:12:27;96985.78;;;16.94;100.00
8061;BME280;4073;42.626;25.386;2023-07-29T02:14:52;96997.66;;;16.84;100.00
8061;BME280;4073;42.626;25.386;2023-07-29T02:17:18;96986.19;;;16.70;100.00
8061;BME280;4073;42.626;25.386;2023-07-29T02:19:43;96987.44;;;16.64;100.00
8061;BME280;4073;42.626;25.386;2023-07-29T02:22:12;96989.19;;;16.69;100.00
8061;BME280;4073;42.626;25.386;2023-07-29T02:24:38;96993.31;;;16.58;100.00
8061;BME280;4073;42.626;25.386;2023-07-29T02:27:03;96998.50;;;16.46;100.00
8061;BME280;4073;42.626;25.386;2023-07-29T02:29:29;96991.06;;;16.43;100.00
8061;BME280;4073;42.626;25.386;2023-07-29T02:31:55;96987.03;;;16.40;100.00
8061;BME280;4073;42.626;25.386;2023-07-29T02:34:21;96987.81;;;16.32;100.00
8061;BME280;4073;42.626;25.386;2023-07-29T02:36:47;96988.09;;;16.22;100.00
8061;BME280;4073;42.626;25.386;2023-07-29T02:39:12;96988.09;;;16.22;100.00
8061;BME280;4073;42.626;25.386;2023-07-29T02:41:37;96996.72;;;16.33;100.00
8061;BME280;4073;42.626;25.386;2023-07-29T02:44:05;96998.34;;;16.42;100.00
8061;BME280;4073;42.626;25.386;2023-07-29T02:46:30;96991.06;;;16.43;100.00
8061;BME280;4073;42.626;25.386;2023-07-29T02:48:56;96996.59;;;16.46;100.00
8061;BME280;4073;42.626;25.386;2023-07-29T02:51:21;96995.81;;;16.46;100.00
8061;BME280;4073;42.626;25.386;2023-07-29T02:53:47;96991.84;;;16.43;100.00
8061;BME280;4073;42.626;25.386;2023-07-29T02:56:12;96987.84;;;16.41;100.00
8061;BME280;4073;42.626;25.386;2023-07-29T02:58:38;96986.13;;;16.45;100.00
8061;BME280;4073;42.626;25.386;2023-07-29T03:01:04;97002.00;;;16.46;100.00
8061;BME280;4073;42.626;25.386;2023-07-29T03:03:30;96993.53;;;16.39;100.00
8061;BME280;4073;42.626;25.386;2023-07-29T03:08:24;96994.59;;;16.69;100.00
8061;BME280;4073;42.626;25.386;2023-07-29T03:10:50;96993.22;;;16.97;100.00
8061;BME280;4073;42.626;25.386;2023-07-29T03:13:15;96990.38;;;17.10;100.00
8061;BME280;4073;42.626;25.386;2023-07-29T03:15:40;96993.72;;;17.24;100.00
8061;BME280;4073;42.626;25.386;2023-07-29T03:18:06;96998.81;;;17.34;100.00
8061;BME280;4073;42.626;25.386;2023-07-29T03:20:31;97003.88;;;17.36;99.50
8061;BME280;4073;42.626;25.386;2023-07-29T03:22:57;96994.97;;;17.35;99.37
8061;BME280;4073;42.626;25.386;2023-07-29T03:25:22;97004.19;;;17.34;97.73
8061;BME280;4073;42.626;25.386;2023-07-29T03:27:48;96998.63;;;17.31;98.34
8061;BME280;4073;42.626;25.386;2023-07-29T03:30:14;96996.09;;;17.34;97.86
8061;BME280;4073;42.626;25.386;2023-07-29T03:32:43;97004.69;;;17.36;99.11
8061;BME280;4073;42.626;25.386;2023-07-29T03:35:10;97001.69;;;17.38;99.83
8061;BME280;4073;42.626;25.386;2023-07-29T03:37:36;97003.44;;;17.42;99.74
8061;BME280;4073;42.626;25.386;2023-07-29T03:40:02;97007.88;;;17.47;100.00
8061;BME280;4073;42.626;25.386;2023-07-29T03:42:28;97006.75;;;17.48;99.06
8061;BME280;4073;42.626;25.386;2023-07-29T03:44:53;97006.13;;;17.51;99.00
8061;BME280;4073;42.626;25.386;2023-07-29T03:47:19;97011.06;;;17.49;96.71
8061;BME280;4073;42.626;25.386;2023-07-29T03:49:44;97008.34;;;17.15;99.61
8061;BME280;4073;42.626;25.386;2023-07-29T03:52:10;97027.06;;;17.03;100.00
8061;BME280;4073;42.626;25.386;2023-07-29T03:54:35;97021.19;;;17.01;100.00
8061;BME280;4073;42.626;25.386;2023-07-29T03:57:01;97019.25;;;16.93;100.00
8061;BME280;4073;42.626;25.386;2023-07-29T03:59:26;97018.00;;;16.90;100.00
8061;BME280;4073;42.626;25.386;2023-07-29T04:01:52;97010.19;;;16.80;100.00
8061;BME280;4073;42.626;25.386;2023-07-29T04:04:17;97024.22;;;17.08;100.00
8061;BME280;4073;42.626;25.386;2023-07-29T04:06:43;97021.03;;;17.14;100.00
8061;BME280;4073;42.626;25.386;2023-07-29T04:09:08;97017.72;;;17.17;100.00
8061;BME280;4073;42.626;25.386;2023-07-29T04:11:34;97031.53;;;17.16;100.00
8061;BME280;4073;42.626;25.386;2023-07-29T04:13:59;97024.41;;;17.45;100.00
8061;BME280;4073;42.626;25.386;2023-07-29T04:16:25;97021.22;;;17.69;100.00
8061;BME280;4073;42.626;25.386;2023-07-29T04:18:51;97014.19;;;17.85;99.67
8061;BME280;4073;42.626;25.386;2023-07-29T04:21:16;97018.94;;;17.96;100.00
8061;BME280;4073;42.626;25.386;2023-07-29T04:23:42;97029.13;;;17.91;98.92
8061;BME280;4073;42.626;25.386;2023-07-29T04:26:07;97023.28;;;17.80;99.28
8061;BME280;4073;42.626;25.386;2023-07-29T04:28:33;97014.69;;;17.70;100.00
8061;BME280;4073;42.626;25.386;2023-07-29T04:30:58;97020.91;;;17.70;100.00
8061;BME280;4073;42.626;25.386;2023-07-29T04:33:24;97027.59;;;17.73;100.00
8061;BME280;4073;42.626;25.386;2023-07-29T04:35:50;97022.81;;;17.70;100.00
8061;BME280;4073;42.626;25.386;2023-07-29T04:38:15;97035.69;;;17.81;100.00
8061;BME280;4073;42.626;25.386;2023-07-29T04:40:41;97033.78;;;17.82;100.00
8061;BME280;4073;42.626;25.386;2023-07-29T04:43:06;97024.38;;;17.71;98.55
8061;BME280;4073;42.626;25.386;2023-07-29T04:45:32;97028.34;;;17.90;99.75
8061;BME280;4073;42.626;25.386;2023-07-29T04:47:58;97020.88;;;17.96;97.31
8061;BME280;4073;42.626;25.386;2023-07-29T04:50:23;97032.44;;;18.05;97.08
8061;BME280;4073;42.626;25.386;2023-07-29T04:52:49;97018.09;;;18.22;100.00
8061;BME280;4073;42.626;25.386;2023-07-29T04:55:14;97023.91;;;18.41;100.00
8061;BME280;4073;42.626;25.386;2023-07-29T04:57:40;97028.53;;;18.49;100.00
8061;BME280;4073;42.626;25.386;2023-07-29T05:00:06;97028.31;;;18.54;100.00
8061;BME280;4073;42.626;25.386;2023-07-29T05:02:32;97024.41;;;18.72;100.00
8061;BME280;4073;42.626;25.386;2023-07-29T05:04:57;97023.66;;;18.92;100.00
8061;BME280;4073;42.626;25.386;2023-07-29T05:07:23;97024.88;;;19.03;99.44
8061;BME280;4073;42.626;25.386;2023-07-29T05:09:48;97029.06;;;19.21;100.00
8061;BME280;4073;42.626;25.386;2023-07-29T05:12:14;97036.69;;;19.27;100.00
8061;BME280;4073;42.626;25.386;2023-07-29T05:14:39;97043.50;;;19.33;98.45
8061;BME280;4073;42.626;25.386;2023-07-29T05:17:05;97039.00;;;19.37;98.05
8061;BME280;4073;42.626;25.386;2023-07-29T05:19:30;97043.50;;;19.54;100.00
8061;BME280;4073;42.626;25.386;2023-07-29T05:21:56;97049.38;;;19.56;91.41
8061;BME280;4073;42.626;25.386;2023-07-29T05:24:22;97044.69;;;19.65;88.97
8061;BME280;4073;42.626;25.386;2023-07-29T05:26:48;97045.38;;;19.74;93.86
8061;BME280;4073;42.626;25.386;2023-07-29T05:29:14;97043.06;;;19.84;85.25
8061;BME280;4073;42.626;25.386;2023-07-29T05:31:39;97038.88;;;19.87;89.79
8061;BME280;4073;42.626;25.386;2023-07-29T05:34:05;97048.13;;;20.06;88.06
8061;BME280;4073;42.626;25.386;2023-07-29T05:36:30;97049.78;;;20.31;83.34
8061;BME280;4073;42.626;25.386;2023-07-29T05:38:55;97050.28;;;20.58;84.26
8061;BME280;4073;42.626;25.386;2023-07-29T05:41:21;97063.97;;;20.85;81.82
8061;BME280;4073;42.626;25.386;2023-07-29T05:43:47;97060.16;;;21.10;81.88
8061;BME280;4073;42.626;25.386;2023-07-29T05:46:12;97060.22;;;21.38;81.30
8061;BME280;4073;42.626;25.386;2023-07-29T05:48:38;97061.41;;;21.64;80.43
8061;BME280;4073;42.626;25.386;2023-07-29T05:51:03;97057.22;;;21.94;84.73
8061;BME280;4073;42.626;25.386;2023-07-29T05:53:31;97053.44;;;22.11;70.85
8061;BME280;4073;42.626;25.386;2023-07-29T05:55:56;97062.03;;;22.28;74.23
8061;BME280;4073;42.626;25.386;2023-07-29T05:58:22;97069.41;;;22.55;74.57
8061;BME280;4073;42.626;25.386;2023-07-29T06:00:47;97064.84;;;22.75;72.33
8061;BME280;4073;42.626;25.386;2023-07-29T06:03:12;97066.88;;;22.94;67.74
8061;BME280;4073;42.626;25.386;2023-07-29T06:05:39;97065.88;;;23.17;68.75
8061;BME280;4073;42.626;25.386;2023-07-29T06:08:04;97066.00;;;23.40;63.78
8061;BME280;4073;42.626;25.386;2023-07-29T06:10:30;97062.66;;;23.65;61.23
8061;BME280;4073;42.626;25.386;2023-07-29T06:12:55;97052.78;;;23.95;64.02
8061;BME280;4073;42.626;25.386;2023-07-29T06:15:20;97052.13;;;24.21;61.65
8061;BME280;4073;42.626;25.386;2023-07-29T06:17:48;97053.22;;;24.39;56.20
8061;BME280;4073;42.626;25.386;2023-07-29T06:20:13;97056.06;;;24.65;57.23
8061;BME280;4073;42.626;25.386;2023-07-29T06:22:39;97048.91;;;24.79;51.81
8061;BME280;4073;42.626;25.386;2023-07-29T06:25:05;97057.06;;;25.02;53.14
8061;BME280;4073;42.626;25.386;2023-07-29T06:27:30;97049.53;;;25.18;56.18
8061;BME280;4073;42.626;25.386;2023-07-29T06:29:55;97049.41;;;25.37;47.53
8061;BME280;4073;42.626;25.386;2023-07-29T06:32:21;97037.47;;;25.49;46.11
8061;BME280;4073;42.626;25.386;2023-07-29T06:34:46;97036.44;;;25.60;45.07
8061;BME280;4073;42.626;25.386;2023-07-29T06:37:12;97044.44;;;25.72;46.03
8061;BME280;4073;42.626;25.386;2023-07-29T06:39:37;97037.41;;;25.75;44.38
8061;BME280;4073;42.626;25.386;2023-07-29T06:42:03;97041.91;;;25.90;43.75
8061;BME280;4073;42.626;25.386;2023-07-29T06:44:28;97034.84;;;25.89;43.12
8061;BME280;4073;42.626;25.386;2023-07-29T06:46:54;97041.47;;;26.17;42.71
8061;BME280;4073;42.626;25.386;2023-07-29T06:49:19;97035.38;;;26.34;41.95
8061;BME280;4073;42.626;25.386;2023-07-29T06:51:45;97030.91;;;26.59;41.48
8061;BME280;4073;42.626;25.386;2023-07-29T06:54:10;97034.28;;;26.82;40.89
8061;BME280;4073;42.626;25.386;2023-07-29T06:56:36;97030.38;;;26.83;38.85
8061;BME280;4073;42.626;25.386;2023-07-29T06:59:02;97039.88;;;26.96;39.93
8061;BME280;4073;42.626;25.386;2023-07-29T07:01:27;97037.09;;;26.89;38.87
8061;BME280;4073;42.626;25.386;2023-07-29T07:03:53;97028.66;;;27.15;38.88
8061;BME280;4073;42.626;25.386;2023-07-29T07:06:21;97023.38;;;27.43;38.47
8061;BME280;4073;42.626;25.386;2023-07-29T07:08:47;97022.72;;;27.68;37.13
8061;BME280;4073;42.626;25.386;2023-07-29T07:11:13;97017.31;;;27.89;37.35
8061;BME280;4073;42.626;25.386;2023-07-29T07:13:38;97026.81;;;28.02;35.90
8061;BME280;4073;42.626;25.386;2023-07-29T07:16:04;97020.97;;;28.31;36.86
8061;BME280;4073;42.626;25.386;2023-07-29T07:18:29;97014.38;;;28.60;35.87
8061;BME280;4073;42.626;25.386;2023-07-29T07:20:55;97019.50;;;28.83;34.75
8061;BME280;4073;42.626;25.386;2023-07-29T07:23:20;97015.56;;;28.84;34.70
8061;BME280;4073;42.626;25.386;2023-07-29T07:25:46;97016.34;;;28.91;34.47
8061;BME280;4073;42.626;25.386;2023-07-29T07:28:11;97025.44;;;29.06;34.03
8061;BME280;4073;42.626;25.386;2023-07-29T07:30:40;97023.03;;;29.25;34.47
8061;BME280;4073;42.626;25.386;2023-07-29T07:33:09;97025.75;;;29.39;33.61
8061;BME280;4073;42.626;25.386;2023-07-29T07:35:34;97024.13;;;29.59;35.24
8061;BME280;4073;42.626;25.386;2023-07-29T07:38:00;97021.78;;;29.58;34.08
8061;BME280;4073;42.626;25.386;2023-07-29T07:40:27;97011.88;;;29.85;33.91
8061;BME280;4073;42.626;25.386;2023-07-29T07:42:53;97012.19;;;30.01;33.49
8061;BME280;4073;42.626;25.386;2023-07-29T07:45:19;97009.75;;;30.21;33.60
8061;BME280;4073;42.626;25.386;2023-07-29T07:47:44;97008.91;;;30.27;32.53
8061;BME280;4073;42.626;25.386;2023-07-29T07:50:10;97008.50;;;30.32;32.38
8061;BME280;4073;42.626;25.386;2023-07-29T07:52:35;97001.03;;;30.33;31.85
8061;BME280;4073;42.626;25.386;2023-07-29T07:55:01;97004.09;;;30.42;31.85
8061;BME280;4073;42.626;25.386;2023-07-29T07:57:26;97007.84;;;30.69;32.36
8061;BME280;4073;42.626;25.386;2023-07-29T07:59:52;97002.28;;;30.79;32.38
8061;BME280;4073;42.626;25.386;2023-07-29T08:02:18;97014.63;;;31.08;30.93
8061;BME280;4073;42.626;25.386;2023-07-29T08:04:43;97003.44;;;31.22;31.17
8061;BME280;4073;42.626;25.386;2023-07-29T08:07:09;97000.84;;;31.49;31.11
8061;BME280;4073;42.626;25.386;2023-07-29T08:09:34;96999.97;;;31.55;30.73
8061;BME280;4073;42.626;25.386;2023-07-29T08:12:00;97006.72;;;31.51;31.09
8061;BME280;4073;42.626;25.386;2023-07-29T08:14:25;97000.56;;;31.73;31.41
8061;BME280;4073;42.626;25.386;2023-07-29T08:16:51;96995.72;;;31.84;30.73
8061;BME280;4073;42.626;25.386;2023-07-29T08:19:17;96992.03;;;31.94;30.25
8061;BME280;4073;42.626;25.386;2023-07-29T08:21:42;96985.25;;;31.99;30.44
8061;BME280;4073;42.626;25.386;2023-07-29T08:24:08;96987.41;;;32.15;30.32
8061;BME280;4073;42.626;25.386;2023-07-29T08:26:33;96986.63;;;32.14;29.58
8061;BME280;4073;42.626;25.386;2023-07-29T08:28:59;96979.53;;;32.13;29.61
8061;BME280;4073;42.626;25.386;2023-07-29T08:31:24;96991.38;;;32.14;29.17
8061;BME280;4073;42.626;25.386;2023-07-29T08:33:49;96989.59;;;32.27;29.47
8061;BME280;4073;42.626;25.386;2023-07-29T08:36:15;96999.56;;;32.21;29.88
8061;BME280;4073;42.626;25.386;2023-07-29T08:38:41;96984.06;;;32.27;29.30
8061;BME280;4073;42.626;25.386;2023-07-29T08:41:26;96984.00;;;32.60;29.43
8061;BME280;4073;42.626;25.386;2023-07-29T08:44:20;96970.56;;;32.82;28.59
8061;BME280;4073;42.626;25.386;2023-07-29T08:46:47;96967.50;;;33.03;29.04
8061;BME280;4073;42.626;25.386;2023-07-29T08:49:14;96975.88;;;33.42;28.13
8061;BME280;4073;42.626;25.386;2023-07-29T08:51:42;96968.22;;;33.69;27.32
8061;BME280;4073;42.626;25.386;2023-07-29T08:54:09;96972.69;;;33.43;27.64
8061;BME280;4073;42.626;25.386;2023-07-29T08:56:35;96974.19;;;33.48;27.34
8061;BME280;4073;42.626;25.386;2023-07-29T08:59:01;96965.16;;;33.63;27.51
8061;BME280;4073;42.626;25.386;2023-07-29T09:01:27;96957.63;;;33.64;27.10
8061;BME280;4073;42.626;25.386;2023-07-29T09:03:53;96950.31;;;33.54;27.34
8061;BME280;4073;42.626;25.386;2023-07-29T09:06:19;96962.63;;;33.72;27.44
8061;BME280;4073;42.626;25.386;2023-07-29T09:08:49;96955.00;;;33.96;27.22
8061;BME280;4073;42.626;25.386;2023-07-29T09:11:16;96954.41;;;34.04;26.93
8061;BME280;4073;42.626;25.386;2023-07-29T09:13:43;96948.09;;;33.84;26.61
8061;BME280;4073;42.626;25.386;2023-07-29T09:16:09;96951.59;;;34.24;27.04
8061;BME280;4073;42.626;25.386;2023-07-29T09:18:34;96944.69;;;34.48;27.13
8061;BME280;4073;42.626;25.386;2023-07-29T09:21:00;96949.22;;;34.74;26.84
8061;BME280;4073;42.626;25.386;2023-07-29T09:23:26;96940.19;;;34.54;26.36
8061;BME280;4073;42.626;25.386;2023-07-29T09:26:00;96939.50;;;34.98;26.58
8061;BME280;4073;42.626;25.386;2023-07-29T09:28:26;96937.47;;;35.15;26.60
8061;BME280;4073;42.626;25.386;2023-07-29T09:30:52;96933.38;;;35.35;26.05
8061;BME280;4073;42.626;25.386;2023-07-29T09:33:18;96942.72;;;35.70;25.37
8061;BME280;4073;42.626;25.386;2023-07-29T09:35:44;96944.28;;;35.71;25.46
8061;BME280;4073;42.626;25.386;2023-07-29T09:38:14;96941.66;;;35.51;25.02
8061;BME280;4073;42.626;25.386;2023-07-29T09:40:41;96931.44;;;35.61;25.17
8061;BME280;4073;42.626;25.386;2023-07-29T09:43:09;96932.69;;;35.60;25.45
8061;BME280;4073;42.626;25.386;2023-07-29T09:45:36;96941.34;;;35.33;25.87
8061;BME280;4073;42.626;25.386;2023-07-29T09:48:03;96930.88;;;35.53;25.40
8061;BME280;4073;42.626;25.386;2023-07-29T09:50:30;96933.22;;;35.67;25.45
8061;BME280;4073;42.626;25.386;2023-07-29T09:52:57;96928.88;;;35.54;25.50
8061;BME280;4073;42.626;25.386;2023-07-29T09:55:26;96934.16;;;35.64;25.59
8061;BME280;4073;42.626;25.386;2023-07-29T09:57:59;96937.19;;;35.41;25.83
8061;BME280;4073;42.626;25.386;2023-07-29T10:00:32;96928.16;;;35.37;25.50
8061;BME280;4073;42.626;25.386;2023-07-29T10:02:58;96929.03;;;35.34;25.53
8061;BME280;4073;42.626;25.386;2023-07-29T10:05:28;96926.34;;;35.15;25.46
8061;BME280;4073;42.626;25.386;2023-07-29T10:07:54;96924.81;;;34.98;25.46
8061;BME280;4073;42.626;25.386;2023-07-29T10:10:20;96919.63;;;34.84;25.97
8061;BME280;4073;42.626;25.386;2023-07-29T10:12:46;96908.63;;;34.64;25.47
8061;BME280;4073;42.626;25.386;2023-07-29T10:15:12;96907.81;;;34.64;26.30
8061;BME280;4073;42.626;25.386;2023-07-29T10:17:39;96904.28;;;34.63;26.46
8061;BME280;4073;42.626;25.386;2023-07-29T10:20:07;96908.25;;;34.78;26.35
8061;BME280;4073;42.626;25.386;2023-07-29T10:22:36;96903.34;;;34.86;26.34
8061;BME280;4073;42.626;25.386;2023-07-29T10:25:11;96913.81;;;34.94;26.24
8061;BME280;4073;42.626;25.386;2023-07-29T10:27:47;96909.25;;;35.16;25.80
8061;BME280;4073;42.626;25.386;2023-07-29T10:30:13;96902.00;;;35.35;25.42
8061;BME280;4073;42.626;25.386;2023-07-29T10:32:38;96900.72;;;35.23;25.65
8061;BME280;4073;42.626;25.386;2023-07-29T10:35:07;96889.91;;;35.13;25.65
8061;BME280;4073;42.626;25.386;2023-07-29T10:37:33;96893.31;;;35.04;25.64
8061;BME280;4073;42.626;25.386;2023-07-29T10:39:59;96889.47;;;35.14;25.48
8061;BME280;4073;42.626;25.386;2023-07-29T10:42:24;96887.75;;;35.04;25.75
8061;BME280;4073;42.626;25.386;2023-07-29T10:44:51;96887.59;;;34.95;25.33
8061;BME280;4073;42.626;25.386;2023-07-29T10:47:27;96889.50;;;34.82;25.82
8061;BME280;4073;42.626;25.386;2023-07-29T10:49:59;96881.91;;;34.70;25.92
8061;BME280;4073;42.626;25.386;2023-07-29T10:54:59;96887.59;;;35.24;25.37
8061;BME280;4073;42.626;25.386;2023-07-29T10:57:32;96877.84;;;35.60;25.11
8061;BME280;4073;42.626;25.386;2023-07-29T10:59:59;96883.56;;;35.94;24.87
8061;BME280;4073;42.626;25.386;2023-07-29T11:05:17;96871.22;;;35.83;24.73
8061;BME280;4073;42.626;25.386;2023-07-29T11:07:52;96869.44;;;36.01;24.23
8061;BME280;4073;42.626;25.386;2023-07-29T11:10:18;96869.56;;;36.10;24.07
8061;BME280;4073;42.626;25.386;2023-07-29T11:12:50;96864.09;;;35.82;24.12
8061;BME280;4073;42.626;25.386;2023-07-29T11:15:25;96859.78;;;36.31;24.16
8061;BME280;4073;42.626;25.386;2023-07-29T11:17:59;96855.50;;;36.52;23.84
8061;BME280;4073;42.626;25.386;2023-07-29T11:20:32;96854.38;;;37.30;23.78
8061;BME280;4073;42.626;25.386;2023-07-29T11:23:02;96846.88;;;38.00;22.96
8061;BME280;4073;42.626;25.386;2023-07-29T11:25:29;96851.88;;;38.45;21.54
8061;BME280;4073;42.626;25.386;2023-07-29T11:27:58;96838.19;;;39.05;21.05
8061;BME280;4073;42.626;25.386;2023-07-29T11:30:24;96849.34;;;39.23;21.01
8061;BME280;4073;42.626;25.386;2023-07-29T11:32:55;96840.03;;;38.90;21.52
8061;BME280;4073;42.626;25.386;2023-07-29T11:35:21;96837.41;;;38.28;21.20
8061;BME280;4073;42.626;25.386;2023-07-29T11:37:48;96835.81;;;37.57;22.07
8061;BME280;4073;42.626;25.386;2023-07-29T11:40:15;96839.38;;;36.93;22.87
8061;BME280;4073;42.626;25.386;2023-07-29T11:42:41;96826.47;;;36.40;23.38
8061;BME280;4073;42.626;25.386;2023-07-29T11:45:08;96832.16;;;35.99;23.73
8061;BME280;4073;42.626;25.386;2023-07-29T11:47:35;96826.38;;;35.93;24.14
8061;BME280;4073;42.626;25.386;2023-07-29T11:50:08;96839.72;;;35.86;24.12
8061;BME280;4073;42.626;25.386;2023-07-29T11:52:44;96827.84;;;35.85;24.04
8061;BME280;4073;42.626;25.386;2023-07-29T11:55:10;96826.97;;;35.88;23.75
8061;BME280;4073;42.626;25.386;2023-07-29T11:57:37;96827.72;;;35.89;23.94
8061;BME280;4073;42.626;25.386;2023-07-29T12:00:04;96827.63;;;35.92;23.75
8061;BME280;4073;42.626;25.386;2023-07-29T12:02:32;96821.34;;;35.63;24.26
8061;BME280;4073;42.626;25.386;2023-07-29T12:04:58;96820.69;;;35.72;24.03
8061;BME280;4073;42.626;25.386;2023-07-29T12:07:24;96819.59;;;35.94;23.95
8061;BME280;4073;42.626;25.386;2023-07-29T12:09:50;96812.91;;;35.92;23.40
8061;BME280;4073;42.626;25.386;2023-07-29T12:12:17;96815.16;;;36.09;23.51
8061;BME280;4073;42.626;25.386;2023-07-29T12:14:47;96806.78;;;36.09;23.54
8061;BME280;4073;42.626;25.386;2023-07-29T12:17:14;96800.78;;;36.11;24.08
8061;BME280;4073;42.626;25.386;2023-07-29T12:19:40;96800.00;;;35.98;24.61
8061;BME280;4073;42.626;25.386;2023-07-29T12:22:09;96799.59;;;35.87;23.80
8061;BME280;4073;42.626;25.386;2023-07-29T12:24:40;96802.00;;;35.60;23.56
8061;BME280;4073;42.626;25.386;2023-07-29T12:27:11;96803.09;;;35.62;23.95
8061;BME280;4073;42.626;25.386;2023-07-29T12:29:42;96798.34;;;35.75;24.82
8061;BME280;4073;42.626;25.386;2023-07-29T12:32:08;96807.72;;;35.81;24.00
8061;BME280;4073;42.626;25.386;2023-07-29T12:34:35;96799.09;;;35.63;24.29
8061;BME280;4073;42.626;25.386;2023-07-29T12:37:02;96803.75;;;35.54;24.24
8061;BME280;4073;42.626;25.386;2023-07-29T12:39:30;96796.31;;;35.51;24.00
8061;BME280;4073;42.626;25.386;2023-07-29T12:41:58;96797.47;;;35.78;23.63
8061;BME280;4073;42.626;25.386;2023-07-29T12:44:25;96797.69;;;35.96;23.32
8061;BME280;4073;42.626;25.386;2023-07-29T12:46:51;96791.69;;;35.85;23.22
8061;BME280;4073;42.626;25.386;2023-07-29T12:49:16;96794.78;;;35.87;22.67
8061;BME280;4073;42.626;25.386;2023-07-29T12:51:42;96797.47;;;35.91;22.26
8061;BME280;4073;42.626;25.386;2023-07-29T12:54:08;96794.31;;;36.01;22.75
8061;BME280;4073;42.626;25.386;2023-07-29T12:56:34;96795.22;;;36.11;22.89
8061;BME280;4073;42.626;25.386;2023-07-29T12:59:01;96793.56;;;35.88;22.74
8061;BME280;4073;42.626;25.386;2023-07-29T13:01:27;96794.25;;;35.80;22.62
8061;BME280;4073;42.626;25.386;2023-07-29T13:03:53;96795.88;;;35.77;23.08
8061;BME280;4073;42.626;25.386;2023-07-29T13:06:19;96796.53;;;35.69;23.01
8061;BME280;4073;42.626;25.386;2023-07-29T13:08:45;96808.28;;;35.35;22.94
8061;BME280;4073;42.626;25.386;2023-07-29T13:11:11;96796.56;;;35.15;23.34
8061;BME280;4073;42.626;25.386;2023-07-29T13:13:36;96807.59;;;34.90;23.46
8061;BME280;4073;42.626;25.386;2023-07-29T13:16:02;96795.47;;;34.68;23.28
8061;BME280;4073;42.626;25.386;2023-07-29T13:18:28;96793.38;;;34.72;23.85